Escanaba, MI (49829)

12:39 PM EST on February 13, 2016 (GMT -0500)
Hurley Marine Lake Side Weather | | Change Station
CLOSE
Current Station
Personal Weather Station
Location: Escanaba, MI
Elevation: 607 ft
Nearby Weather Stations
Active Advisory: Lake Effect Snow Advisory Active Notice: Local Storm Report

Elev 607 ft 45.73 °N, 87.06 °W | Updated 5 seconds ago

Clear
Clear
8.9 °F
Feels Like -4 °F
N
9.0
Wind Variable Wind from NW
Gusts 25.0 mph

Today
High -- | Low -- °F
--% Chance of Precip.
Yesterday
High -- | Low -- °F
Precip. -- in
Pressure 30.47 in
Visibility 10.0 miles
Clouds Clear
Windchill -4 °F
Dew Point -4 °F
Humidity 55%
Rainfall 0.00 in
Snow Depth Not available.
7:54 AM 6:11 PM
Waxing Crescent, 32% visible
METAR KESC 131735Z AUTO 32013G22KT 10SM CLR M12/M21 A3047 RMK AO1
Pressure 30.47 in
Visibility 10.0 miles
Clouds Clear
Windchill -4 °F
Dew Point -4 °F
Humidity 55%
Rainfall 0.00 in
Snow Depth Not available.
7:54 AM 6:11 PM
Waxing Crescent, 32% visible
METAR KESC 131735Z AUTO 32013G22KT 10SM CLR M12/M21 A3047 RMK AO1

10-Day Weather Forecast

Almanac

Astronomy

Feb. 13, 2016 Rise Set
Actual Time
Civil Twilight
Nautical Twilight
Astronomical Twilight
Moon
Length of Visible Light
Length of Day
Tomorrow will be .
, % of the Moon is Illuminated

Today's Extremes

State Highs State Lows

Community

WunderPhotos

Upload Photos

1,892,622 photos uploaded!

WunderBlog® & News

Nearby

Air Quality

  Air Quality AQ Index Pollutant
Not available.

Snow Depth

Station Depth Elevation

Earthquake Activity

City Distance Mag. Time & Date
Minimum magnitude displayed is 2.5.

Coastal Water Temperatures

Place Temperature

Stations

Nearby Weather Stations

Station Location Temp. Windchill Dew Point Humidity Wind Precip. Elev Updated Type
                   

Watches & Warnings

Lake Effect Snow Advisory
Issued: 12:20 PM EST Feb. 13, 2016 – National Weather Service

... Lake effect Snow Advisory remains in effect until 2 PM EST
this afternoon...

Hazardous weather...

* light to moderate lake effect snow from northeast Delta County
   into Schoolcraft County will end by this evening. The snow will
   affect areas mainly north and east of Nahma Junction.

* No additional snow is expected at Gladstone and Escanaba this
   afternoon. Another inch of snow will fall this afternoon to the
   north and east of Nahma Junction.

Impacts...

* snow covered roads will be slippery.

* Patchy blowing snow in open areas where the snow showers are most
   persistent will sharply reduce visibilities.

Precautionary/preparedness actions...

* a lake effect Snow Advisory Means Lake effect snow is
   forecast that will make travel difficult in some areas.

* Prepare... plan... and stay informed. Visit www.Weather.Gov/MQT